Terminal Aerodrome Forecast
Issued by NWS Topeka, KS

Home | Current Version | Previous Version | Text Only | Print | Product List | Glossary On
Versions: 1 2 3 4 5 6 7 8 9 10 11 12 13 14
000
FTUS43 KTOP 301700
TAFTOP
TAF
KTOP 301720Z 3018/0118 17014G23KT P6SM BKN100
     FM010300 16009KT P6SM VCTS BKN080CB
     FM010900 18006KT 2SM TSRA BR SCT010 OVC040CB
     FM011400 18007KT 6SM SHRA VCTS SCT015 OVC040CB
     FM011700 18009KT P6SM SCT025 BKN040=

USA.gov is the U.S. government's official web portal to all federal, state and local government web resources and services.